sensor_id;sensor_type;location;lat;lon;timestamp;P1;durP1;ratioP1;P2;durP2;ratioP2
46845;SDS011;33947;46.804;134.252;2022-08-03T05:14:51;9.15;;;5.05;;
46845;SDS011;33947;46.804;134.252;2022-08-03T05:21:42;6.50;;;5.47;;
46845;SDS011;33947;46.804;134.252;2022-08-03T05:24:54;8.80;;;5.20;;
46845;SDS011;33947;46.804;134.252;2022-08-03T05:27:59;4.22;;;3.33;;
46845;SDS011;33947;46.804;134.252;2022-08-03T05:34:08;6.82;;;4.15;;
46845;SDS011;33947;46.804;134.252;2022-08-03T05:37:13;9.98;;;4.28;;
46845;SDS011;33947;46.804;134.252;2022-08-03T05:40:20;8.57;;;5.30;;
46845;SDS011;33947;46.804;134.252;2022-08-03T05:46:30;10.70;;;7.18;;
46845;SDS011;33947;46.804;134.252;2022-08-03T05:49:35;18.92;;;7.45;;
46845;SDS011;33947;46.804;134.252;2022-08-03T05:52:40;8.98;;;6.45;;
46845;SDS011;33947;46.804;134.252;2022-08-03T05:55:45;8.88;;;5.65;;
46845;SDS011;33947;46.804;134.252;2022-08-03T05:58:57;6.45;;;4.63;;
46845;SDS011;33947;46.804;134.252;2022-08-03T06:02:21;7.40;;;5.27;;
46845;SDS011;33947;46.804;134.252;2022-08-03T06:05:26;8.80;;;5.32;;
46845;SDS011;33947;46.804;134.252;2022-08-03T06:08:32;7.78;;;5.35;;
46845;SDS011;33947;46.804;134.252;2022-08-03T06:11:37;6.90;;;4.90;;
46845;SDS011;33947;46.804;134.252;2022-08-03T06:14:48;10.45;;;4.93;;
46845;SDS011;33947;46.804;134.252;2022-08-03T06:17:53;7.05;;;4.13;;
46845;SDS011;33947;46.804;134.252;2022-08-03T06:26:28;5.95;;;4.28;;
46845;SDS011;33947;46.804;134.252;2022-08-03T06:29:32;9.40;;;4.22;;
46845;SDS011;33947;46.804;134.252;2022-08-03T06:32:39;5.68;;;3.95;;
46845;SDS011;33947;46.804;134.252;2022-08-03T06:35:53;4.57;;;3.38;;
46845;SDS011;33947;46.804;134.252;2022-08-03T06:38:58;5.82;;;3.97;;
46845;SDS011;33947;46.804;134.252;2022-08-03T06:42:04;5.20;;;3.97;;
46845;SDS011;33947;46.804;134.252;2022-08-03T06:45:12;5.85;;;3.80;;
46845;SDS011;33947;46.804;134.252;2022-08-03T06:48:17;9.45;;;6.63;;
46845;SDS011;33947;46.804;134.252;2022-08-03T06:51:21;10.38;;;3.63;;
46845;SDS011;33947;46.804;134.252;2022-08-03T06:54:46;4.47;;;3.47;;
46845;SDS011;33947;46.804;134.252;2022-08-03T06:57:51;6.78;;;3.40;;
46845;SDS011;33947;46.804;134.252;2022-08-03T07:01:01;7.90;;;3.78;;
46845;SDS011;33947;46.804;134.252;2022-08-03T07:17:05;8.52;;;4.32;;
46845;SDS011;33947;46.804;134.252;2022-08-03T07:20:13;5.35;;;3.65;;
46845;SDS011;33947;46.804;134.252;2022-08-03T07:23:20;8.68;;;3.97;;
46845;SDS011;33947;46.804;134.252;2022-08-03T07:26:24;8.10;;;4.78;;
46845;SDS011;33947;46.804;134.252;2022-08-03T07:29:29;11.35;;;4.05;;
46845;SDS011;33947;46.804;134.252;2022-08-03T07:32:36;6.75;;;4.00;;
46845;SDS011;33947;46.804;134.252;2022-08-03T07:35:52;7.03;;;4.10;;
46845;SDS011;33947;46.804;134.252;2022-08-03T07:38:57;5.60;;;3.80;;
46845;SDS011;33947;46.804;134.252;2022-08-03T07:42:16;5.00;;;3.70;;
46845;SDS011;33947;46.804;134.252;2022-08-03T07:45:21;5.45;;;3.80;;
46845;SDS011;33947;46.804;134.252;2022-08-03T07:48:26;5.18;;;3.50;;
46845;SDS011;33947;46.804;134.252;2022-08-03T08:01:20;6.40;;;3.97;;
46845;SDS011;33947;46.804;134.252;2022-08-03T08:04:26;6.15;;;3.30;;
46845;SDS011;33947;46.804;134.252;2022-08-03T08:07:30;6.80;;;3.85;;
46845;SDS011;33947;46.804;134.252;2022-08-03T08:10:35;32.90;;;5.45;;
46845;SDS011;33947;46.804;134.252;2022-08-03T08:13:40;11.68;;;7.30;;
46845;SDS011;33947;46.804;134.252;2022-08-03T08:16:45;13.82;;;8.68;;
46845;SDS011;33947;46.804;134.252;2022-08-03T08:19:50;19.67;;;7.20;;
46845;SDS011;33947;46.804;134.252;2022-08-03T08:22:56;15.40;;;4.22;;
46845;SDS011;33947;46.804;134.252;2022-08-03T08:26:04;5.82;;;3.78;;
46845;SDS011;33947;46.804;134.252;2022-08-03T08:29:09;4.45;;;3.40;;
46845;SDS011;33947;46.804;134.252;2022-08-03T08:32:14;14.07;;;4.95;;
46845;SDS011;33947;46.804;134.252;2022-08-03T08:35:19;4.90;;;3.95;;
46845;SDS011;33947;46.804;134.252;2022-08-03T08:38:24;6.78;;;4.00;;
46845;SDS011;33947;46.804;134.252;2022-08-03T08:41:29;20.27;;;4.70;;
46845;SDS011;33947;46.804;134.252;2022-08-03T08:44:36;8.63;;;4.75;;
46845;SDS011;33947;46.804;134.252;2022-08-03T08:47:43;10.65;;;4.32;;
46845;SDS011;33947;46.804;134.252;2022-08-03T08:50:54;6.45;;;4.20;;
46845;SDS011;33947;46.804;134.252;2022-08-03T08:54:00;7.63;;;4.25;;
46845;SDS011;33947;46.804;134.252;2022-08-03T08:57:09;8.57;;;4.80;;
46845;SDS011;33947;46.804;134.252;2022-08-03T09:00:34;10.60;;;4.80;;
46845;SDS011;33947;46.804;134.252;2022-08-03T09:03:39;8.85;;;5.50;;
46845;SDS011;33947;46.804;134.252;2022-08-03T09:10:09;14.15;;;7.53;;
46845;SDS011;33947;46.804;134.252;2022-08-03T09:13:16;16.67;;;8.98;;
46845;SDS011;33947;46.804;134.252;2022-08-03T09:19:25;14.80;;;8.43;;
46845;SDS011;33947;46.804;134.252;2022-08-03T09:22:30;14.85;;;8.57;;
46845;SDS011;33947;46.804;134.252;2022-08-03T09:25:36;11.02;;;6.70;;
46845;SDS011;33947;46.804;134.252;2022-08-03T09:28:43;19.35;;;7.95;;
46845;SDS011;33947;46.804;134.252;2022-08-03T09:32:05;18.85;;;7.95;;
46845;SDS011;33947;46.804;134.252;2022-08-03T09:35:12;10.60;;;7.15;;
46845;SDS011;33947;46.804;134.252;2022-08-03T09:38:26;9.93;;;6.80;;
46845;SDS011;33947;46.804;134.252;2022-08-03T09:41:31;9.18;;;5.60;;
46845;SDS011;33947;46.804;134.252;2022-08-03T09:44:37;8.18;;;5.35;;
46845;SDS011;33947;46.804;134.252;2022-08-03T09:47:46;11.75;;;5.40;;
46845;SDS011;33947;46.804;134.252;2022-08-03T09:50:52;11.95;;;6.05;;
46845;SDS011;33947;46.804;134.252;2022-08-03T09:54:29;18.88;;;6.85;;
46845;SDS011;33947;46.804;134.252;2022-08-03T09:57:39;24.63;;;7.50;;
46845;SDS011;33947;46.804;134.252;2022-08-03T10:00:58;7.50;;;4.95;;
46845;SDS011;33947;46.804;134.252;2022-08-03T10:04:11;8.55;;;4.82;;
46845;SDS011;33947;46.804;134.252;2022-08-03T10:07:18;14.18;;;5.35;;
46845;SDS011;33947;46.804;134.252;2022-08-03T10:10:24;38.15;;;9.70;;
46845;SDS011;33947;46.804;134.252;2022-08-03T10:13:33;23.42;;;8.75;;
46845;SDS011;33947;46.804;134.252;2022-08-03T10:16:40;14.23;;;5.72;;
46845;SDS011;33947;46.804;134.252;2022-08-03T10:19:45;10.20;;;5.18;;
46845;SDS011;33947;46.804;134.252;2022-08-03T10:22:51;14.43;;;5.80;;
46845;SDS011;33947;46.804;134.252;2022-08-03T10:29:05;10.95;;;5.65;;
46845;SDS011;33947;46.804;134.252;2022-08-03T10:32:20;13.15;;;7.00;;
46845;SDS011;33947;46.804;134.252;2022-08-03T10:35:30;19.52;;;8.10;;
46845;SDS011;33947;46.804;134.252;2022-08-03T10:38:48;20.65;;;10.13;;
46845;SDS011;33947;46.804;134.252;2022-08-03T10:41:59;23.13;;;7.30;;
46845;SDS011;33947;46.804;134.252;2022-08-03T10:45:08;13.20;;;4.90;;
46845;SDS011;33947;46.804;134.252;2022-08-03T10:48:22;8.18;;;4.13;;
46845;SDS011;33947;46.804;134.252;2022-08-03T10:51:30;17.75;;;4.60;;
46845;SDS011;33947;46.804;134.252;2022-08-03T10:54:42;10.93;;;3.65;;
46845;SDS011;33947;46.804;134.252;2022-08-03T10:58:12;15.68;;;4.53;;
46845;SDS011;33947;46.804;134.252;2022-08-03T11:01:48;5.32;;;3.50;;
46845;SDS011;33947;46.804;134.252;2022-08-03T11:08:32;8.93;;;4.45;;
46845;SDS011;33947;46.804;134.252;2022-08-03T11:14:46;5.45;;;4.03;;
46845;SDS011;33947;46.804;134.252;2022-08-03T11:18:07;14.13;;;5.03;;
46845;SDS011;33947;46.804;134.252;2022-08-03T11:21:13;14.10;;;4.93;;
46845;SDS011;33947;46.804;134.252;2022-08-03T11:27:46;10.20;;;5.13;;
46845;SDS011;33947;46.804;134.252;2022-08-03T11:30:50;8.48;;;5.05;;
46845;SDS011;33947;46.804;134.252;2022-08-03T11:34:05;9.20;;;5.18;;
46845;SDS011;33947;46.804;134.252;2022-08-03T11:37:23;8.60;;;5.50;;
46845;SDS011;33947;46.804;134.252;2022-08-03T11:40:48;7.65;;;5.05;;
46845;SDS011;33947;46.804;134.252;2022-08-03T11:43:53;12.27;;;6.15;;
46845;SDS011;33947;46.804;134.252;2022-08-03T11:46:58;12.77;;;7.38;;
46845;SDS011;33947;46.804;134.252;2022-08-03T11:50:04;12.57;;;6.20;;
46845;SDS011;33947;46.804;134.252;2022-08-03T11:53:13;7.45;;;4.38;;
46845;SDS011;33947;46.804;134.252;2022-08-03T11:56:19;44.03;;;8.30;;
46845;SDS011;33947;46.804;134.252;2022-08-03T11:59:31;14.77;;;4.72;;
46845;SDS011;33947;46.804;134.252;2022-08-03T12:02:36;14.02;;;4.78;;
46845;SDS011;33947;46.804;134.252;2022-08-03T12:05:45;8.07;;;4.25;;
46845;SDS011;33947;46.804;134.252;2022-08-03T12:22:35;9.00;;;4.53;;
46845;SDS011;33947;46.804;134.252;2022-08-03T12:25:43;9.35;;;4.93;;
46845;SDS011;33947;46.804;134.252;2022-08-03T12:28:51;14.18;;;5.82;;
46845;SDS011;33947;46.804;134.252;2022-08-03T12:31:56;11.20;;;4.65;;
46845;SDS011;33947;46.804;134.252;2022-08-03T12:35:00;7.03;;;4.30;;
46845;SDS011;33947;46.804;134.252;2022-08-03T12:38:07;7.88;;;4.10;;
46845;SDS011;33947;46.804;134.252;2022-08-03T12:41:15;13.80;;;4.82;;
46845;SDS011;33947;46.804;134.252;2022-08-03T12:44:34;9.45;;;4.60;;
46845;SDS011;33947;46.804;134.252;2022-08-03T12:47:52;8.32;;;4.00;;
46845;SDS011;33947;46.804;134.252;2022-08-03T12:51:08;11.32;;;5.70;;
46845;SDS011;33947;46.804;134.252;2022-08-03T12:54:17;13.60;;;5.78;;
46845;SDS011;33947;46.804;134.252;2022-08-03T12:57:39;9.10;;;5.10;;
46845;SDS011;33947;46.804;134.252;2022-08-03T13:00:54;9.57;;;4.72;;
46845;SDS011;33947;46.804;134.252;2022-08-03T13:03:59;10.85;;;5.18;;
46845;SDS011;33947;46.804;134.252;2022-08-03T13:07:06;8.57;;;4.75;;
46845;SDS011;33947;46.804;134.252;2022-08-03T13:10:31;9.60;;;5.13;;
46845;SDS011;33947;46.804;134.252;2022-08-03T13:13:37;12.88;;;5.95;;
46845;SDS011;33947;46.804;134.252;2022-08-03T13:16:42;10.93;;;5.30;;
46845;SDS011;33947;46.804;134.252;2022-08-03T13:19:47;20.77;;;6.35;;
46845;SDS011;33947;46.804;134.252;2022-08-03T13:22:53;11.68;;;5.57;;
46845;SDS011;33947;46.804;134.252;2022-08-03T13:26:02;11.20;;;4.93;;
46845;SDS011;33947;46.804;134.252;2022-08-03T13:29:07;7.97;;;5.32;;
46845;SDS011;33947;46.804;134.252;2022-08-03T13:32:12;11.15;;;5.30;;
46845;SDS011;33947;46.804;134.252;2022-08-03T13:35:16;12.07;;;5.15;;
46845;SDS011;33947;46.804;134.252;2022-08-03T13:38:21;8.45;;;5.28;;
46845;SDS011;33947;46.804;134.252;2022-08-03T13:41:30;5.95;;;4.45;;
46845;SDS011;33947;46.804;134.252;2022-08-03T13:44:34;15.45;;;4.82;;
46845;SDS011;33947;46.804;134.252;2022-08-03T13:47:40;10.68;;;4.70;;
46845;SDS011;33947;46.804;134.252;2022-08-03T13:50:45;10.27;;;5.65;;
46845;SDS011;33947;46.804;134.252;2022-08-03T13:53:50;13.85;;;5.10;;
46845;SDS011;33947;46.804;134.252;2022-08-03T13:56:55;12.82;;;4.93;;
46845;SDS011;33947;46.804;134.252;2022-08-03T14:00:19;9.60;;;5.60;;
46845;SDS011;33947;46.804;134.252;2022-08-03T14:03:31;9.10;;;4.88;;
46845;SDS011;33947;46.804;134.252;2022-08-03T14:06:36;7.45;;;5.25;;
46845;SDS011;33947;46.804;134.252;2022-08-03T14:09:47;17.83;;;5.13;;
46845;SDS011;33947;46.804;134.252;2022-08-03T14:12:52;14.00;;;5.15;;
46845;SDS011;33947;46.804;134.252;2022-08-03T14:15:58;11.23;;;4.70;;
46845;SDS011;33947;46.804;134.252;2022-08-03T14:19:04;10.93;;;4.95;;
46845;SDS011;33947;46.804;134.252;2022-08-03T14:22:09;7.18;;;4.80;;
46845;SDS011;33947;46.804;134.252;2022-08-03T14:25:14;8.77;;;4.45;;
46845;SDS011;33947;46.804;134.252;2022-08-03T14:28:19;12.77;;;4.82;;
46845;SDS011;33947;46.804;134.252;2022-08-03T14:31:25;13.35;;;4.90;;
46845;SDS011;33947;46.804;134.252;2022-08-03T14:34:50;9.15;;;4.22;;
46845;SDS011;33947;46.804;134.252;2022-08-03T14:37:54;12.48;;;4.63;;
46845;SDS011;33947;46.804;134.252;2022-08-03T14:40:59;17.15;;;5.25;;
46845;SDS011;33947;46.804;134.252;2022-08-03T14:47:08;11.52;;;4.35;;
46845;SDS011;33947;46.804;134.252;2022-08-03T14:50:13;11.68;;;4.50;;
46845;SDS011;33947;46.804;134.252;2022-08-03T14:53:38;12.37;;;4.70;;
46845;SDS011;33947;46.804;134.252;2022-08-03T14:56:44;9.73;;;4.32;;
46845;SDS011;33947;46.804;134.252;2022-08-03T14:59:49;13.85;;;4.70;;
46845;SDS011;33947;46.804;134.252;2022-08-03T15:02:58;15.38;;;4.53;;
46845;SDS011;33947;46.804;134.252;2022-08-03T15:06:03;18.17;;;5.40;;
46845;SDS011;33947;46.804;134.252;2022-08-03T15:09:08;10.57;;;5.25;;
46845;SDS011;33947;46.804;134.252;2022-08-03T15:12:25;11.77;;;4.95;;
46845;SDS011;33947;46.804;134.252;2022-08-03T15:15:31;13.27;;;5.53;;
46845;SDS011;33947;46.804;134.252;2022-08-03T15:18:35;10.40;;;5.65;;
46845;SDS011;33947;46.804;134.252;2022-08-03T15:21:40;10.48;;;5.90;;
46845;SDS011;33947;46.804;134.252;2022-08-03T15:24:49;9.60;;;5.13;;
46845;SDS011;33947;46.804;134.252;2022-08-03T15:27:53;13.73;;;5.72;;
46845;SDS011;33947;46.804;134.252;2022-08-03T15:31:06;10.85;;;5.75;;
46845;SDS011;33947;46.804;134.252;2022-08-03T15:34:11;12.85;;;5.30;;
46845;SDS011;33947;46.804;134.252;2022-08-03T15:37:15;10.50;;;5.90;;
46845;SDS011;33947;46.804;134.252;2022-08-03T15:43:25;9.63;;;5.15;;
46845;SDS011;33947;46.804;134.252;2022-08-03T15:46:29;9.00;;;6.25;;
46845;SDS011;33947;46.804;134.252;2022-08-03T15:49:34;11.93;;;5.97;;
46845;SDS011;33947;46.804;134.252;2022-08-03T15:52:39;15.88;;;6.45;;
46845;SDS011;33947;46.804;134.252;2022-08-03T15:55:43;13.25;;;5.70;;
46845;SDS011;33947;46.804;134.252;2022-08-03T15:58:48;8.82;;;5.45;;
46845;SDS011;33947;46.804;134.252;2022-08-03T16:02:12;12.73;;;5.80;;
46845;SDS011;33947;46.804;134.252;2022-08-03T16:05:17;17.38;;;6.20;;
46845;SDS011;33947;46.804;134.252;2022-08-03T16:08:22;13.32;;;5.93;;
46845;SDS011;33947;46.804;134.252;2022-08-03T16:11:27;11.43;;;6.20;;
46845;SDS011;33947;46.804;134.252;2022-08-03T16:14:31;12.30;;;5.55;;
46845;SDS011;33947;46.804;134.252;2022-08-03T16:17:53;13.65;;;5.47;;
46845;SDS011;33947;46.804;134.252;2022-08-03T16:20:58;8.93;;;5.30;;
46845;SDS011;33947;46.804;134.252;2022-08-03T16:24:03;11.13;;;5.10;;
46845;SDS011;33947;46.804;134.252;2022-08-03T16:27:17;16.58;;;5.40;;
46845;SDS011;33947;46.804;134.252;2022-08-03T16:30:42;8.05;;;4.85;;
46845;SDS011;33947;46.804;134.252;2022-08-03T16:33:48;8.20;;;4.95;;
46845;SDS011;33947;46.804;134.252;2022-08-03T16:36:53;8.40;;;4.88;;
46845;SDS011;33947;46.804;134.252;2022-08-03T16:39:57;11.50;;;4.85;;
46845;SDS011;33947;46.804;134.252;2022-08-03T16:43:09;11.10;;;4.60;;
46845;SDS011;33947;46.804;134.252;2022-08-03T16:46:20;17.98;;;4.75;;
46845;SDS011;33947;46.804;134.252;2022-08-03T16:52:50;17.35;;;5.07;;
46845;SDS011;33947;46.804;134.252;2022-08-03T16:55:56;8.98;;;4.68;;
46845;SDS011;33947;46.804;134.252;2022-08-03T16:59:01;8.10;;;5.03;;
46845;SDS011;33947;46.804;134.252;2022-08-03T17:02:10;10.50;;;5.03;;
46845;SDS011;33947;46.804;134.252;2022-08-03T17:05:27;5.95;;;3.90;;
46845;SDS011;33947;46.804;134.252;2022-08-03T17:08:49;10.07;;;4.50;;
46845;SDS011;33947;46.804;134.252;2022-08-03T17:11:57;6.15;;;4.35;;
46845;SDS011;33947;46.804;134.252;2022-08-03T17:15:02;7.78;;;4.10;;
46845;SDS011;33947;46.804;134.252;2022-08-03T17:18:12;10.25;;;4.20;;
46845;SDS011;33947;46.804;134.252;2022-08-03T17:21:28;7.05;;;4.40;;
46845;SDS011;33947;46.804;134.252;2022-08-03T17:24:35;7.15;;;4.25;;
46845;SDS011;33947;46.804;134.252;2022-08-03T17:27:44;9.00;;;4.10;;
46845;SDS011;33947;46.804;134.252;2022-08-03T17:31:12;8.90;;;4.32;;
46845;SDS011;33947;46.804;134.252;2022-08-03T17:34:34;12.45;;;4.30;;
46845;SDS011;33947;46.804;134.252;2022-08-03T17:37:42;6.82;;;3.92;;
46845;SDS011;33947;46.804;134.252;2022-08-03T17:41:05;7.57;;;4.40;;
46845;SDS011;33947;46.804;134.252;2022-08-03T17:44:12;12.95;;;4.30;;
46845;SDS011;33947;46.804;134.252;2022-08-03T17:47:38;12.82;;;4.50;;
46845;SDS011;33947;46.804;134.252;2022-08-03T17:50:50;10.77;;;4.80;;
46845;SDS011;33947;46.804;134.252;2022-08-03T17:54:05;16.08;;;4.90;;
46845;SDS011;33947;46.804;134.252;2022-08-03T18:01:04;8.88;;;4.47;;
46845;SDS011;33947;46.804;134.252;2022-08-03T18:04:58;6.22;;;3.80;;
46845;SDS011;33947;46.804;134.252;2022-08-03T18:08:26;8.93;;;4.30;;
46845;SDS011;33947;46.804;134.252;2022-08-03T18:11:34;10.30;;;4.80;;
46845;SDS011;33947;46.804;134.252;2022-08-03T18:14:47;8.65;;;4.90;;
46845;SDS011;33947;46.804;134.252;2022-08-03T18:18:05;8.88;;;4.90;;
46845;SDS011;33947;46.804;134.252;2022-08-03T18:21:31;10.43;;;5.00;;
46845;SDS011;33947;46.804;134.252;2022-08-03T18:28:10;7.47;;;4.32;;
46845;SDS011;33947;46.804;134.252;2022-08-03T18:31:21;8.02;;;4.57;;
46845;SDS011;33947;46.804;134.252;2022-08-03T18:34:46;7.15;;;4.65;;
46845;SDS011;33947;46.804;134.252;2022-08-03T18:37:55;8.95;;;4.85;;
46845;SDS011;33947;46.804;134.252;2022-08-03T18:41:02;8.93;;;4.30;;
46845;SDS011;33947;46.804;134.252;2022-08-03T18:44:17;8.23;;;4.97;;
46845;SDS011;33947;46.804;134.252;2022-08-03T18:51:12;9.50;;;5.25;;
46845;SDS011;33947;46.804;134.252;2022-08-03T18:54:38;10.88;;;4.75;;
46845;SDS011;33947;46.804;134.252;2022-08-03T19:05:04;16.00;;;4.43;;
46845;SDS011;33947;46.804;134.252;2022-08-03T19:08:15;8.90;;;4.50;;
46845;SDS011;33947;46.804;134.252;2022-08-03T19:11:30;6.03;;;4.22;;
46845;SDS011;33947;46.804;134.252;2022-08-03T19:15:06;11.02;;;4.82;;
46845;SDS011;33947;46.804;134.252;2022-08-03T19:18:15;8.80;;;4.20;;
46845;SDS011;33947;46.804;134.252;2022-08-03T19:21:20;10.07;;;4.50;;
46845;SDS011;33947;46.804;134.252;2022-08-03T19:24:25;10.68;;;4.78;;
46845;SDS011;33947;46.804;134.252;2022-08-03T19:27:32;14.68;;;4.75;;
46845;SDS011;33947;46.804;134.252;2022-08-03T19:30:38;12.60;;;5.82;;
46845;SDS011;33947;46.804;134.252;2022-08-03T19:33:55;21.55;;;5.03;;
46845;SDS011;33947;46.804;134.252;2022-08-03T19:37:01;11.10;;;4.68;;
46845;SDS011;33947;46.804;134.252;2022-08-03T19:40:08;13.10;;;4.70;;
46845;SDS011;33947;46.804;134.252;2022-08-03T19:43:21;10.93;;;4.68;;
46845;SDS011;33947;46.804;134.252;2022-08-03T19:46:59;14.68;;;4.70;;
46845;SDS011;33947;46.804;134.252;2022-08-03T19:50:09;6.38;;;4.20;;
46845;SDS011;33947;46.804;134.252;2022-08-03T19:53:34;10.30;;;4.10;;
46845;SDS011;33947;46.804;134.252;2022-08-03T19:56:47;9.73;;;4.82;;
46845;SDS011;33947;46.804;134.252;2022-08-03T19:59:59;9.30;;;4.70;;
46845;SDS011;33947;46.804;134.252;2022-08-03T20:03:06;14.85;;;4.35;;
46845;SDS011;33947;46.804;134.252;2022-08-03T20:06:31;12.05;;;3.88;;
46845;SDS011;33947;46.804;134.252;2022-08-03T20:09:36;9.98;;;4.65;;
46845;SDS011;33947;46.804;134.252;2022-08-03T20:12:46;8.05;;;4.65;;
46845;SDS011;33947;46.804;134.252;2022-08-03T20:15:52;13.63;;;4.82;;
46845;SDS011;33947;46.804;134.252;2022-08-03T20:18:58;9.68;;;4.63;;
46845;SDS011;33947;46.804;134.252;2022-08-03T20:22:03;12.82;;;4.88;;
46845;SDS011;33947;46.804;134.252;2022-08-03T20:25:16;7.82;;;4.70;;
46845;SDS011;33947;46.804;134.252;2022-08-03T20:28:41;10.43;;;4.55;;
46845;SDS011;33947;46.804;134.252;2022-08-03T20:31:59;9.05;;;5.00;;
46845;SDS011;33947;46.804;134.252;2022-08-03T20:38:13;7.28;;;4.07;;
46845;SDS011;33947;46.804;134.252;2022-08-03T20:41:18;12.40;;;5.45;;
46845;SDS011;33947;46.804;134.252;2022-08-03T20:44:23;9.93;;;4.70;;
46845;SDS011;33947;46.804;134.252;2022-08-03T20:47:28;9.95;;;4.43;;
46845;SDS011;33947;46.804;134.252;2022-08-03T20:50:37;7.57;;;4.45;;
46845;SDS011;33947;46.804;134.252;2022-08-03T20:53:45;14.60;;;5.00;;
46845;SDS011;33947;46.804;134.252;2022-08-03T20:57:03;11.73;;;4.65;;
46845;SDS011;33947;46.804;134.252;2022-08-03T21:00:31;10.45;;;5.38;;
46845;SDS011;33947;46.804;134.252;2022-08-03T21:03:35;7.93;;;4.43;;
46845;SDS011;33947;46.804;134.252;2022-08-03T21:06:57;9.75;;;4.57;;
46845;SDS011;33947;46.804;134.252;2022-08-03T21:10:19;10.63;;;4.93;;
46845;SDS011;33947;46.804;134.252;2022-08-03T21:13:54;11.35;;;5.13;;
46845;SDS011;33947;46.804;134.252;2022-08-03T21:16:58;13.15;;;5.65;;
46845;SDS011;33947;46.804;134.252;2022-08-03T21:20:21;7.93;;;4.47;;
46845;SDS011;33947;46.804;134.252;2022-08-03T21:23:33;11.48;;;4.78;;
46845;SDS011;33947;46.804;134.252;2022-08-03T21:26:52;18.02;;;4.93;;
46845;SDS011;33947;46.804;134.252;2022-08-03T21:29:59;8.50;;;4.43;;
46845;SDS011;33947;46.804;134.252;2022-08-03T21:33:05;16.27;;;5.90;;
46845;SDS011;33947;46.804;134.252;2022-08-03T21:36:10;15.63;;;5.40;;
46845;SDS011;33947;46.804;134.252;2022-08-03T21:39:15;12.48;;;5.88;;
46845;SDS011;33947;46.804;134.252;2022-08-03T21:42:20;11.18;;;5.72;;
46845;SDS011;33947;46.804;134.252;2022-08-03T21:45:28;9.98;;;5.20;;
46845;SDS011;33947;46.804;134.252;2022-08-03T21:48:38;15.68;;;5.85;;
46845;SDS011;33947;46.804;134.252;2022-08-03T21:51:44;9.98;;;5.00;;
46845;SDS011;33947;46.804;134.252;2022-08-03T21:54:53;7.63;;;5.43;;
46845;SDS011;33947;46.804;134.252;2022-08-03T21:57:59;10.70;;;5.10;;
46845;SDS011;33947;46.804;134.252;2022-08-03T22:01:08;10.15;;;5.80;;
46845;SDS011;33947;46.804;134.252;2022-08-03T22:04:14;12.90;;;5.93;;
46845;SDS011;33947;46.804;134.252;2022-08-03T22:07:42;14.68;;;5.93;;
46845;SDS011;33947;46.804;134.252;2022-08-03T22:10:47;11.90;;;5.78;;
46845;SDS011;33947;46.804;134.252;2022-08-03T22:13:52;14.80;;;6.78;;
46845;SDS011;33947;46.804;134.252;2022-08-03T22:16:57;12.23;;;6.20;;
46845;SDS011;33947;46.804;134.252;2022-08-03T22:20:09;15.65;;;7.00;;
46845;SDS011;33947;46.804;134.252;2022-08-03T22:23:17;15.50;;;7.30;;
46845;SDS011;33947;46.804;134.252;2022-08-03T22:26:26;13.55;;;5.88;;
46845;SDS011;33947;46.804;134.252;2022-08-03T22:29:37;16.10;;;6.93;;
46845;SDS011;33947;46.804;134.252;2022-08-03T22:32:45;12.50;;;8.18;;
46845;SDS011;33947;46.804;134.252;2022-08-03T22:35:54;17.10;;;7.97;;
46845;SDS011;33947;46.804;134.252;2022-08-03T22:39:01;24.35;;;7.35;;
46845;SDS011;33947;46.804;134.252;2022-08-03T22:42:06;10.38;;;7.15;;
46845;SDS011;33947;46.804;134.252;2022-08-03T22:45:12;9.40;;;6.40;;
46845;SDS011;33947;46.804;134.252;2022-08-03T22:48:37;19.53;;;7.77;;
46845;SDS011;33947;46.804;134.252;2022-08-03T22:51:43;22.65;;;7.50;;
46845;SDS011;33947;46.804;134.252;2022-08-03T22:54:49;13.77;;;6.18;;
46845;SDS011;33947;46.804;134.252;2022-08-03T22:57:54;13.48;;;6.15;;
46845;SDS011;33947;46.804;134.252;2022-08-03T23:01:09;21.85;;;6.68;;
46845;SDS011;33947;46.804;134.252;2022-08-03T23:04:15;9.23;;;6.03;;
46845;SDS011;33947;46.804;134.252;2022-08-03T23:07:26;22.67;;;6.78;;
46845;SDS011;33947;46.804;134.252;2022-08-03T23:10:34;12.73;;;5.38;;
46845;SDS011;33947;46.804;134.252;2022-08-03T23:13:45;19.10;;;5.97;;
46845;SDS011;33947;46.804;134.252;2022-08-03T23:16:57;11.07;;;5.70;;
46845;SDS011;33947;46.804;134.252;2022-08-03T23:20:07;9.65;;;5.53;;
46845;SDS011;33947;46.804;134.252;2022-08-03T23:23:13;10.38;;;5.80;;
46845;SDS011;33947;46.804;134.252;2022-08-03T23:26:22;11.07;;;5.55;;
46845;SDS011;33947;46.804;134.252;2022-08-03T23:29:29;14.13;;;5.97;;
46845;SDS011;33947;46.804;134.252;2022-08-03T23:32:36;10.68;;;5.30;;
46845;SDS011;33947;46.804;134.252;2022-08-03T23:35:44;13.68;;;5.82;;
46845;SDS011;33947;46.804;134.252;2022-08-03T23:39:24;12.77;;;5.32;;
46845;SDS011;33947;46.804;134.252;2022-08-03T23:42:37;16.30;;;6.07;;
46845;SDS011;33947;46.804;134.252;2022-08-03T23:45:43;8.25;;;5.25;;
46845;SDS011;33947;46.804;134.252;2022-08-03T23:48:50;7.97;;;4.88;;
46845;SDS011;33947;46.804;134.252;2022-08-03T23:52:02;10.27;;;5.00;;
